createdAt,value
2023-04-22T00:02:24.467Z,3.33
2023-04-22T00:04:52.373Z,4.05
2023-04-22T00:07:20.192Z,4.53
2023-04-22T00:09:47.947Z,4.10
2023-04-22T00:12:17.070Z,3.75
2023-04-22T00:14:44.738Z,4.03
2023-04-22T00:17:12.957Z,3.75
2023-04-22T00:19:41.055Z,3.92
2023-04-22T00:22:08.889Z,4.70
2023-04-22T00:24:36.637Z,3.75
2023-04-22T00:27:04.680Z,4.40
2023-04-22T00:29:33.721Z,4.47
2023-04-22T00:32:01.435Z,3.97
2023-04-22T00:34:29.159Z,5.30
2023-04-22T00:36:57.750Z,4.18
2023-04-22T00:39:25.525Z,3.95
2023-04-22T00:41:53.784Z,3.92
2023-04-22T00:44:22.168Z,4.28
2023-04-22T00:46:52.395Z,4.20
2023-04-22T00:49:21.247Z,4.68
2023-04-22T00:51:48.972Z,4.07
2023-04-22T00:54:16.726Z,3.50
2023-04-22T00:56:44.709Z,3.65
2023-04-22T00:59:12.367Z,3.60
2023-04-22T01:01:40.673Z,3.55
2023-04-22T01:04:12.251Z,3.65
2023-04-22T01:06:41.140Z,3.95
2023-04-22T01:09:08.879Z,5.35
2023-04-22T01:11:37.319Z,3.92
2023-04-22T01:14:05.642Z,4.38
2023-04-22T01:16:35.675Z,5.10
2023-04-22T01:19:03.446Z,4.18
2023-04-22T01:21:33.667Z,4.43
2023-04-22T01:24:03.148Z,4.20
2023-04-22T01:26:31.054Z,4.13
2023-04-22T01:28:59.391Z,3.85
2023-04-22T01:31:27.153Z,3.97
2023-04-22T01:33:55.768Z,3.92
2023-04-22T01:36:23.550Z,4.25
2023-04-22T01:38:51.588Z,4.13
2023-04-22T01:41:21.120Z,5.00
2023-04-22T01:43:49.291Z,3.60
2023-04-22T01:46:18.349Z,3.67
2023-04-22T01:48:50.404Z,3.65
2023-04-22T01:51:20.318Z,3.67
2023-04-22T01:53:48.516Z,3.45
2023-04-22T01:56:16.585Z,3.63
2023-04-22T01:58:45.721Z,3.88
2023-04-22T02:01:14.471Z,3.25
2023-04-22T02:03:42.461Z,2.72
2023-04-22T02:06:10.293Z,3.15
2023-04-22T02:08:38.335Z,3.50
2023-04-22T02:11:06.201Z,3.75
2023-04-22T02:13:37.851Z,3.17
2023-04-22T02:16:07.898Z,3.47
2023-04-22T02:18:35.887Z,3.03
2023-04-22T02:21:03.891Z,4.00
2023-04-22T02:23:31.716Z,4.53
2023-04-22T02:25:59.415Z,4.88
2023-04-22T02:28:27.264Z,4.00
2023-04-22T02:30:54.973Z,3.97
2023-04-22T02:33:24.143Z,3.60
2023-04-22T02:35:51.968Z,4.15
2023-04-22T02:38:20.103Z,4.15
2023-04-22T02:40:47.911Z,3.70
2023-04-22T02:43:15.590Z,4.28
2023-04-22T02:45:43.419Z,3.88
2023-04-22T02:48:11.213Z,3.90
2023-04-22T02:50:40.572Z,4.05
2023-04-22T02:53:09.568Z,4.40
2023-04-22T02:55:37.237Z,4.35
2023-04-22T02:58:04.898Z,5.15
2023-04-22T03:00:32.679Z,5.80
2023-04-22T03:03:00.698Z,4.22
2023-04-22T03:05:28.855Z,4.63
2023-04-22T03:07:57.965Z,3.10
2023-04-22T03:10:25.743Z,3.60
2023-04-22T03:12:53.430Z,3.88
2023-04-22T03:15:21.865Z,4.68
2023-04-22T03:17:49.795Z,4.03
2023-04-22T03:20:17.808Z,3.90
2023-04-22T03:22:45.503Z,3.53
2023-04-22T03:25:14.851Z,3.85
2023-04-22T03:27:42.619Z,3.15
2023-04-22T03:30:10.963Z,4.20
2023-04-22T03:32:38.838Z,4.03
2023-04-22T03:35:07.548Z,3.55
2023-04-22T03:37:35.248Z,4.00
2023-04-22T03:40:03.408Z,3.75
2023-04-22T03:42:32.680Z,3.97
2023-04-22T03:45:00.517Z,3.65
2023-04-22T03:47:28.207Z,4.45
2023-04-22T03:49:55.976Z,3.97
2023-04-22T03:52:23.732Z,3.65
2023-04-22T03:54:51.389Z,4.28
2023-04-22T03:57:19.136Z,3.15
2023-04-22T03:59:48.165Z,3.10
2023-04-22T04:02:15.923Z,3.92
2023-04-22T04:04:44.057Z,3.92
2023-04-22T04:07:12.207Z,3.72
2023-04-22T04:09:40.198Z,3.92
2023-04-22T04:12:08.430Z,4.03
2023-04-22T04:14:36.142Z,4.20
2023-04-22T04:17:05.243Z,3.70
2023-04-22T04:19:33.001Z,4.50
2023-04-22T04:22:01.946Z,3.58
2023-04-22T04:24:29.774Z,4.97
2023-04-22T04:26:58.034Z,4.40
2023-04-22T04:29:26.963Z,4.07
2023-04-22T04:31:54.640Z,4.53
2023-04-22T04:34:23.691Z,4.28
2023-04-22T04:36:51.343Z,4.22
2023-04-22T04:39:19.191Z,4.60
2023-04-22T04:41:49.059Z,3.80
2023-04-22T04:44:17.060Z,3.63
2023-04-22T04:46:46.687Z,4.15
2023-04-22T04:49:14.517Z,3.83
2023-04-22T04:51:43.660Z,4.32
2023-04-22T04:54:11.355Z,4.40
2023-04-22T04:56:39.084Z,3.83
2023-04-22T04:59:06.840Z,3.83
2023-04-22T05:01:34.582Z,4.70
2023-04-22T05:04:02.508Z,4.13
2023-04-22T05:06:31.423Z,4.45
2023-04-22T05:09:00.580Z,3.40
2023-04-22T05:11:28.360Z,3.53
2023-04-22T05:13:56.107Z,3.90
2023-04-22T05:16:23.886Z,4.47
2023-04-22T05:18:51.630Z,3.65
2023-04-22T05:21:20.295Z,4.15
2023-04-22T05:23:48.202Z,3.95
2023-04-22T05:26:17.290Z,4.25
2023-04-22T05:28:44.982Z,4.00
2023-04-22T05:31:12.748Z,3.95
2023-04-22T05:33:40.478Z,4.72
2023-04-22T05:36:08.652Z,4.47
2023-04-22T05:38:36.547Z,3.85
2023-04-22T05:41:04.336Z,3.83
2023-04-22T05:43:33.422Z,3.95
2023-04-22T05:46:01.191Z,4.75
2023-04-22T05:48:28.958Z,3.90
2023-04-22T05:50:56.653Z,3.88
2023-04-22T05:53:24.464Z,4.57
2023-04-22T05:55:52.214Z,5.20
2023-04-22T05:58:19.881Z,4.72
2023-04-22T06:00:48.978Z,4.75
2023-04-22T06:03:17.029Z,4.60
2023-04-22T06:05:45.213Z,4.82
2023-04-22T06:08:12.975Z,3.70
2023-04-22T06:10:40.729Z,4.22
2023-04-22T06:13:09.381Z,4.50
2023-04-22T06:15:37.196Z,4.07
2023-04-22T06:18:06.404Z,4.13
2023-04-22T06:20:35.847Z,4.00
2023-04-22T06:23:05.240Z,3.75
2023-04-22T06:25:33.351Z,4.32
2023-04-22T06:28:01.292Z,4.30
2023-04-22T06:30:29.250Z,3.88
2023-04-22T06:32:57.071Z,4.05
2023-04-22T06:35:26.444Z,3.80
2023-04-22T06:37:54.199Z,3.35
2023-04-22T06:40:21.992Z,4.28
2023-04-22T06:42:49.730Z,4.03
2023-04-22T06:45:17.597Z,5.50
2023-04-22T06:47:45.437Z,4.00
2023-04-22T06:50:13.180Z,4.32
2023-04-22T06:52:42.275Z,5.38
2023-04-22T06:55:10.948Z,4.35
2023-04-22T06:57:38.754Z,4.22
2023-04-22T07:00:08.617Z,4.30
2023-04-22T07:02:36.558Z,4.03
2023-04-22T07:05:04.542Z,4.28
2023-04-22T07:07:32.458Z,3.92
2023-04-22T07:10:01.477Z,4.30
2023-04-22T07:12:29.230Z,3.47
2023-04-22T07:14:57.685Z,4.43
2023-04-22T07:17:25.396Z,3.88
2023-04-22T07:19:53.445Z,4.20
2023-04-22T07:22:21.217Z,4.03
2023-04-22T07:24:48.933Z,3.88
2023-04-22T07:27:18.183Z,3.88
2023-04-22T07:29:46.020Z,4.65
2023-04-22T07:32:13.896Z,4.18
2023-04-22T07:34:41.699Z,4.50
2023-04-22T07:37:09.627Z,4.15
2023-04-22T07:39:37.690Z,4.45
2023-04-22T07:42:07.225Z,3.83
2023-04-22T07:44:38.239Z,4.85
2023-04-22T07:47:08.463Z,4.05
2023-04-22T07:49:36.307Z,4.05
2023-04-22T07:52:04.124Z,4.35
2023-04-22T07:54:31.829Z,4.38
2023-04-22T07:56:59.537Z,4.25
2023-04-22T07:59:27.337Z,3.70
2023-04-22T08:01:56.414Z,4.93
2023-04-22T08:04:24.729Z,4.63
2023-04-22T08:06:52.931Z,4.55
2023-04-22T08:09:20.793Z,5.65
2023-04-22T08:11:48.487Z,3.65
2023-04-22T08:14:16.238Z,4.30
2023-04-22T08:16:43.936Z,3.22
2023-04-22T08:19:13.024Z,4.28
2023-04-22T08:21:40.789Z,4.45
2023-04-22T08:24:08.654Z,3.95
2023-04-22T08:26:37.468Z,4.32
2023-04-22T08:29:05.591Z,3.20
2023-04-22T08:31:33.433Z,4.70
2023-04-22T08:34:01.422Z,4.10
2023-04-22T08:36:31.777Z,4.28
2023-04-22T08:38:59.644Z,3.60
2023-04-22T08:41:27.492Z,4.20
2023-04-22T08:43:55.324Z,3.92
2023-04-22T08:46:24.003Z,3.20
2023-04-22T08:48:52.501Z,4.85
2023-04-22T08:51:20.295Z,3.80
2023-04-22T08:53:49.395Z,4.00
2023-04-22T08:56:17.716Z,4.47
2023-04-22T08:58:46.516Z,4.68
2023-04-22T09:01:14.611Z,5.00
2023-04-22T09:03:43.052Z,4.15
2023-04-22T09:06:12.381Z,4.32
2023-04-22T09:08:40.674Z,4.53
2023-04-22T09:11:11.306Z,4.40
2023-04-22T09:13:39.196Z,5.68
2023-04-22T09:16:07.367Z,4.55
2023-04-22T09:18:41.741Z,4.75
2023-04-22T09:21:09.673Z,4.65
2023-04-22T09:23:46.743Z,4.72
2023-04-22T09:26:18.159Z,4.70
2023-04-22T09:28:52.031Z,4.43
2023-04-22T09:31:20.011Z,5.00
2023-04-22T09:33:53.026Z,4.60
2023-04-22T09:36:24.430Z,3.90
2023-04-22T09:38:56.115Z,4.47
2023-04-22T09:41:32.120Z,4.18
2023-04-22T09:44:01.352Z,4.72
2023-04-22T09:46:30.820Z,3.78
2023-04-22T09:49:00.677Z,3.88
2023-04-22T09:51:30.555Z,3.92
2023-04-22T09:54:00.339Z,4.10
2023-04-22T09:56:48.566Z,3.47
2023-04-22T09:59:21.689Z,3.25
2023-04-22T10:01:50.999Z,3.85
2023-04-22T10:04:21.475Z,4.65
2023-04-22T10:06:49.586Z,4.72
2023-04-22T10:09:19.666Z,3.38
2023-04-22T10:11:49.532Z,3.63
2023-04-22T10:14:17.201Z,4.03
2023-04-22T10:16:47.865Z,4.40
2023-04-22T10:19:20.341Z,3.58
2023-04-22T10:21:49.347Z,3.30
2023-04-22T10:24:18.858Z,3.90
2023-04-22T10:26:56.786Z,3.50
2023-04-22T10:29:26.841Z,3.17
2023-04-22T10:31:58.341Z,3.40
2023-04-22T10:34:26.129Z,4.07
2023-04-22T10:36:59.453Z,3.40
2023-04-22T10:39:28.766Z,2.83
2023-04-22T10:42:06.620Z,2.47
2023-04-22T10:44:48.634Z,2.80
2023-04-22T10:47:27.017Z,2.15
2023-04-22T10:50:13.175Z,2.05
2023-04-22T10:52:42.059Z,1.80
2023-04-22T10:55:09.979Z,1.77
2023-04-22T10:57:41.684Z,1.60
2023-04-22T11:00:30.996Z,1.73
2023-04-22T11:03:10.623Z,2.15
2023-04-22T11:05:39.613Z,1.73
2023-04-22T11:08:09.347Z,2.15
2023-04-22T11:10:44.082Z,2.08
2023-04-22T11:13:15.431Z,3.70
2023-04-22T11:15:45.215Z,2.03
2023-04-22T11:18:18.523Z,2.17
2023-04-22T11:20:48.428Z,1.80
2023-04-22T11:23:20.621Z,1.23
2023-04-22T11:25:48.417Z,1.20
2023-04-22T11:28:17.697Z,0.90
2023-04-22T11:30:46.209Z,1.20
2023-04-22T11:33:16.319Z,1.05
2023-04-22T11:35:44.211Z,1.33
2023-04-22T11:38:11.951Z,1.58
2023-04-22T11:40:42.926Z,1.17
2023-04-22T11:43:13.975Z,0.90
2023-04-22T11:45:43.234Z,1.30
2023-04-22T11:48:12.341Z,0.75
2023-04-22T11:50:42.224Z,0.80
2023-04-22T11:53:16.221Z,1.27
2023-04-22T11:55:45.662Z,0.90
2023-04-22T11:58:15.698Z,1.08
2023-04-22T12:00:47.117Z,1.45
2023-04-22T12:03:16.523Z,1.10
2023-04-22T12:05:46.447Z,0.95
2023-04-22T12:08:16.205Z,2.05
2023-04-22T12:10:45.697Z,0.93
2023-04-22T12:13:20.869Z,1.23
2023-04-22T12:15:54.453Z,1.17
2023-04-22T12:18:30.714Z,1.20
2023-04-22T12:21:02.185Z,1.58
2023-04-22T12:23:29.917Z,0.82
2023-04-22T12:25:57.589Z,1.08
2023-04-22T12:28:25.535Z,0.43
2023-04-22T12:30:54.649Z,0.55
2023-04-22T12:33:22.517Z,0.75
2023-04-22T12:35:52.572Z,1.15
2023-04-22T12:38:20.404Z,0.55
2023-04-22T12:40:48.111Z,1.33
2023-04-22T12:43:15.836Z,0.60
2023-04-22T12:45:43.759Z,0.93
2023-04-22T12:48:12.816Z,0.50
2023-04-22T12:50:42.131Z,0.65
2023-04-22T12:53:09.863Z,1.30
2023-04-22T12:55:37.760Z,0.95
2023-04-22T12:58:05.553Z,1.73
2023-04-22T13:00:33.574Z,0.63
2023-04-22T13:03:01.802Z,0.77
2023-04-22T13:05:30.960Z,0.93
2023-04-22T13:08:06.481Z,0.98
2023-04-22T13:10:35.509Z,1.00
2023-04-22T13:13:17.066Z,0.75
2023-04-22T13:15:47.196Z,0.55
2023-04-22T13:18:16.429Z,1.20
2023-04-22T13:20:46.298Z,0.95
2023-04-22T13:23:17.100Z,0.73
2023-04-22T13:25:45.189Z,0.32
2023-04-22T13:28:12.954Z,1.00
2023-04-22T13:30:40.676Z,0.90
2023-04-22T13:33:08.608Z,0.63
2023-04-22T13:35:36.660Z,1.10
2023-04-22T13:38:07.533Z,0.80
2023-04-22T13:40:35.227Z,0.95
2023-04-22T13:43:02.969Z,0.47
2023-04-22T13:45:31.087Z,0.93
2023-04-22T13:47:58.860Z,0.73
2023-04-22T13:50:26.640Z,1.63
2023-04-22T13:52:54.713Z,0.88
2023-04-22T13:55:23.839Z,0.50
2023-04-22T13:57:52.059Z,0.90
2023-04-22T14:00:20.593Z,0.63
2023-04-22T14:02:48.712Z,1.00
2023-04-22T14:05:16.745Z,0.90
2023-04-22T14:07:44.498Z,1.00
2023-04-22T14:10:13.708Z,0.60
2023-04-22T14:12:44.321Z,0.73
2023-04-22T14:15:12.090Z,0.90
2023-04-22T14:17:40.161Z,0.95
2023-04-22T14:20:11.025Z,1.00
2023-04-22T14:22:39.015Z,1.05
2023-04-22T14:25:08.017Z,0.70
2023-04-22T14:27:35.998Z,0.98
2023-04-22T14:30:06.273Z,0.88
2023-04-22T14:32:34.112Z,0.70
2023-04-22T14:35:01.865Z,0.88
2023-04-22T14:37:29.684Z,1.13
2023-04-22T14:39:57.452Z,0.95
2023-04-22T14:42:25.456Z,1.25
2023-04-22T14:44:53.433Z,0.73
2023-04-22T14:47:22.562Z,1.17
2023-04-22T14:49:50.676Z,1.35
2023-04-22T14:52:18.411Z,1.17
2023-04-22T14:54:47.353Z,0.98
2023-04-22T14:57:15.251Z,1.05
2023-04-22T14:59:43.082Z,1.33
2023-04-22T15:02:15.875Z,1.05
2023-04-22T15:04:45.597Z,1.45
2023-04-22T15:07:13.323Z,0.90
2023-04-22T15:09:41.261Z,0.88
2023-04-22T15:12:09.343Z,1.25
2023-04-22T15:14:37.609Z,0.75
2023-04-22T15:17:06.464Z,0.70
2023-04-22T15:19:34.303Z,1.00
2023-04-22T15:22:03.581Z,0.93
2023-04-22T15:24:31.484Z,0.98
2023-04-22T15:26:59.844Z,1.65
2023-04-22T15:29:28.425Z,0.75
2023-04-22T15:31:56.694Z,0.60
2023-04-22T15:34:25.024Z,0.85
2023-04-22T15:36:52.791Z,0.93
2023-04-22T15:39:22.006Z,0.70
2023-04-22T15:41:49.808Z,0.80
2023-04-22T15:44:17.621Z,0.80
2023-04-22T15:46:46.421Z,0.93
2023-04-22T15:49:14.775Z,0.90
2023-04-22T15:51:42.677Z,1.02
2023-04-22T15:54:10.446Z,0.85
2023-04-22T15:56:39.775Z,0.73
2023-04-22T15:59:07.456Z,0.50
2023-04-22T16:01:35.321Z,0.90
2023-04-22T16:04:03.550Z,1.17
2023-04-22T16:06:32.187Z,0.88
2023-04-22T16:08:59.922Z,1.60
2023-04-22T16:11:27.622Z,0.70
2023-04-22T16:13:56.722Z,2.03
2023-04-22T16:16:27.705Z,1.67
2023-04-22T16:18:55.828Z,1.05
2023-04-22T16:21:23.613Z,0.98
2023-04-22T16:23:51.537Z,0.75
2023-04-22T16:26:19.739Z,1.17
2023-04-22T16:28:47.526Z,1.10
2023-04-22T16:31:18.149Z,1.05
2023-04-22T16:33:46.553Z,1.50
2023-04-22T16:36:14.329Z,1.15
2023-04-22T16:38:42.076Z,1.95
2023-04-22T16:41:11.519Z,0.80
2023-04-22T16:43:41.012Z,1.70
2023-04-22T16:46:09.461Z,1.13
2023-04-22T16:48:38.673Z,1.50
2023-04-22T16:51:06.579Z,0.90
2023-04-22T16:53:34.376Z,1.10
2023-04-22T16:56:02.202Z,2.00
2023-04-22T16:58:30.524Z,0.98
2023-04-22T17:00:58.363Z,1.60
2023-04-22T17:03:26.918Z,1.45
2023-04-22T17:05:56.107Z,1.80
2023-04-22T17:08:23.788Z,1.15
2023-04-22T17:10:52.555Z,0.90
2023-04-22T17:13:20.870Z,0.82
2023-04-22T17:15:48.639Z,1.85
2023-04-22T17:18:16.534Z,2.13
2023-04-22T17:20:44.436Z,1.58
2023-04-22T17:23:13.668Z,1.55
2023-04-22T17:25:41.418Z,1.02
2023-04-22T17:28:10.986Z,1.48
2023-04-22T17:30:38.962Z,1.33
2023-04-22T17:33:06.871Z,1.42
2023-04-22T17:35:34.689Z,2.05
2023-04-22T17:38:02.462Z,1.52
2023-04-22T17:40:31.990Z,1.80
2023-04-22T17:42:59.836Z,2.17
2023-04-22T17:45:27.635Z,1.88
2023-04-22T17:47:55.825Z,1.40
2023-04-22T17:50:23.826Z,1.60
2023-04-22T17:52:51.613Z,2.10
2023-04-22T17:55:19.541Z,1.50
2023-04-22T17:57:48.580Z,1.30
2023-04-22T18:00:18.081Z,1.08
2023-04-22T18:02:46.143Z,1.33
2023-04-22T18:05:14.048Z,2.60
2023-04-22T18:07:41.821Z,2.08
2023-04-22T18:10:11.385Z,2.33
2023-04-22T18:12:39.449Z,1.25
2023-04-22T18:15:09.368Z,1.15
2023-04-22T18:17:37.132Z,1.85
2023-04-22T18:20:16.604Z,1.20
2023-04-22T18:22:45.938Z,1.50
2023-04-22T18:25:13.692Z,1.23
2023-04-22T18:27:41.720Z,2.53
2023-04-22T18:30:11.565Z,1.85
2023-04-22T18:32:39.619Z,1.05
2023-04-22T18:35:08.690Z,1.45
2023-04-22T18:37:36.397Z,1.20
2023-04-22T18:40:05.780Z,1.65
2023-04-22T18:42:33.507Z,2.15
2023-04-22T18:45:03.617Z,1.50
2023-04-22T18:47:33.720Z,2.22
2023-04-22T18:50:01.496Z,1.85
2023-04-22T18:52:29.284Z,1.58
2023-04-22T18:54:57.018Z,2.13
2023-04-22T18:57:24.772Z,2.83
2023-04-22T18:59:52.437Z,2.10
2023-04-22T19:02:20.172Z,2.05
2023-04-22T19:04:49.412Z,1.95
2023-04-22T19:07:17.183Z,1.38
2023-04-22T19:09:44.906Z,2.20
2023-04-22T19:12:14.778Z,2.40
2023-04-22T19:14:42.901Z,2.72
2023-04-22T19:17:11.063Z,1.88
2023-04-22T19:19:39.202Z,1.38
2023-04-22T19:22:08.527Z,1.75
2023-04-22T19:24:36.511Z,2.25
2023-04-22T19:27:06.918Z,1.65
2023-04-22T19:29:34.628Z,1.52
2023-04-22T19:32:03.365Z,2.22
2023-04-22T19:34:31.332Z,2.03
2023-04-22T19:36:59.009Z,1.73
2023-04-22T19:39:28.086Z,1.75
2023-04-22T19:41:55.842Z,1.50
2023-04-22T19:44:23.599Z,1.45
2023-04-22T19:46:51.329Z,1.70
2023-04-22T19:49:19.776Z,1.52
2023-04-22T19:51:47.572Z,1.63
2023-04-22T19:54:16.937Z,2.35
2023-04-22T19:56:46.573Z,1.83
2023-04-22T19:59:14.593Z,2.17
2023-04-22T20:01:42.881Z,2.55
2023-04-22T20:04:11.183Z,2.25
2023-04-22T20:06:39.727Z,1.65
2023-04-22T20:09:10.160Z,1.50
2023-04-22T20:11:38.496Z,2.03
2023-04-22T20:14:09.758Z,1.70
2023-04-22T20:16:38.475Z,1.42
2023-04-22T20:19:06.412Z,1.27
2023-04-22T20:21:35.642Z,2.63
2023-04-22T20:24:05.022Z,1.42
2023-04-22T20:26:33.687Z,1.52
2023-04-22T20:29:01.929Z,1.92
2023-04-22T20:31:31.417Z,2.22
2023-04-22T20:33:59.382Z,1.77
2023-04-22T20:36:27.615Z,1.25
2023-04-22T20:38:56.130Z,1.70
2023-04-22T20:41:25.458Z,1.70
2023-04-22T20:43:53.272Z,1.63
2023-04-22T20:46:23.106Z,2.15
2023-04-22T20:48:53.022Z,1.30
2023-04-22T20:51:20.988Z,2.33
2023-04-22T20:53:50.517Z,1.70
2023-04-22T20:56:18.335Z,2.35
2023-04-22T20:58:46.065Z,2.30
2023-04-22T21:01:16.322Z,2.08
2023-04-22T21:03:51.104Z,1.90
2023-04-22T21:06:22.044Z,1.63
2023-04-22T21:08:50.390Z,1.88
2023-04-22T21:11:18.598Z,1.70
2023-04-22T21:13:47.376Z,2.40
2023-04-22T21:16:19.494Z,3.38
2023-04-22T21:18:48.260Z,1.60
2023-04-22T21:21:17.703Z,1.80
2023-04-22T21:23:47.412Z,2.05
2023-04-22T21:26:16.150Z,1.45
2023-04-22T21:28:44.777Z,1.42
2023-04-22T21:31:13.456Z,2.42
2023-04-22T21:33:41.184Z,1.95
2023-04-22T21:36:10.019Z,2.17
2023-04-22T21:38:38.000Z,1.95
2023-04-22T21:41:07.218Z,1.85
2023-04-22T21:43:34.985Z,2.05
2023-04-22T21:46:02.743Z,1.90
2023-04-22T21:48:30.782Z,1.80
2023-04-22T21:50:58.592Z,3.28
2023-04-22T21:53:26.488Z,2.17
2023-04-22T21:55:54.280Z,2.92
2023-04-22T21:58:23.396Z,2.15
2023-04-22T22:00:51.133Z,2.58
2023-04-22T22:03:18.883Z,2.65
2023-04-22T22:05:46.635Z,1.77
2023-04-22T22:08:14.477Z,3.28
2023-04-22T22:10:43.558Z,1.98
2023-04-22T22:13:11.318Z,1.83
2023-04-22T22:15:40.545Z,2.53
2023-04-22T22:18:08.289Z,1.88
2023-04-22T22:20:36.728Z,1.63
2023-04-22T22:23:04.615Z,2.42
2023-04-22T22:25:32.287Z,2.17
2023-04-22T22:28:00.214Z,1.70
2023-04-22T22:30:28.055Z,1.80
2023-04-22T22:32:57.207Z,1.80
2023-04-22T22:35:24.901Z,1.50
2023-04-22T22:37:52.706Z,2.42
2023-04-22T22:40:20.425Z,1.35
2023-04-22T22:42:48.181Z,2.67
2023-04-22T22:45:16.135Z,2.17
2023-04-22T22:47:43.914Z,2.15
2023-04-22T22:50:13.076Z,2.03
2023-04-22T22:52:41.135Z,2.63
2023-04-22T22:55:09.700Z,2.53
2023-04-22T22:57:37.427Z,1.60
2023-04-22T23:00:06.950Z,2.17
2023-04-22T23:02:34.903Z,1.65
2023-04-22T23:05:02.933Z,1.27
2023-04-22T23:07:31.982Z,1.60
2023-04-22T23:09:59.687Z,1.42
2023-04-22T23:12:27.422Z,2.00
2023-04-22T23:14:55.082Z,1.80
2023-04-22T23:17:22.918Z,2.13
2023-04-22T23:19:52.493Z,1.48
2023-04-22T23:22:20.400Z,2.55
2023-04-22T23:24:50.094Z,1.70
2023-04-22T23:27:18.708Z,1.70
2023-04-22T23:29:47.077Z,1.92
2023-04-22T23:32:16.689Z,2.15
2023-04-22T23:34:46.952Z,1.95
2023-04-22T23:37:16.223Z,1.65
2023-04-22T23:39:44.368Z,2.28
2023-04-22T23:42:13.408Z,2.80
2023-04-22T23:44:41.493Z,1.20
2023-04-22T23:47:09.379Z,1.40
2023-04-22T23:49:37.132Z,2.28
2023-04-22T23:52:04.902Z,1.95
2023-04-22T23:54:33.107Z,2.17
2023-04-22T23:57:01.350Z,1.38
2023-04-22T23:59:31.118Z,1.40
